Time;durP1;ratioP1;P1;durP2;ratioP2;P2;SDS_P1;SDS_P2;PMS_P1;PMS_P2;Temp;Humidity;BMP_temperature;BMP_pressure;BME280_temperature;BME280_humidity;BME280_pressure;Samples;Min_cycle;Max_cycle;Signal;HPM_P1;HPM_P2
2022/01/21 00:01:30;;;;;;;27.00;15.45;;;;;;;;;;5095965;28;20220;-66
2022/01/21 00:03:56;;;;;;;30.08;15.20;;;;;;;;;;5097866;28;20176;-66
2022/01/21 00:06:23;;;;;;;27.23;14.55;;;;;;;;;;5096321;28;20167;-66
2022/01/21 00:08:51;;;;;;;26.20;13.80;;;;;;;;;;5097523;28;20245;-66
2022/01/21 00:11:17;;;;;;;23.55;12.95;;;;;;;;;;5097447;28;20156;-66
2022/01/21 00:13:43;;;;;;;21.60;13.50;;;;;;;;;;5097269;28;20203;-66
2022/01/21 00:16:13;;;;;;;21.35;13.57;;;;;;;;;;5097339;28;20175;-66
2022/01/21 00:18:40;;;;;;;21.35;12.55;;;;;;;;;;5097216;28;20316;-66
2022/01/21 00:32:07;;;;;;;19.90;12.30;;;;;;;;;;5097325;28;20212;-66
2022/01/21 00:34:33;;;;;;;23.60;12.93;;;;;;;;;;5097178;28;20206;-66
2022/01/21 00:36:59;;;;;;;16.92;12.60;;;;;;;;;;5097025;28;20174;-66
2022/01/21 00:39:29;;;;;;;16.60;12.10;;;;;;;;;;5096837;28;20175;-66
2022/01/21 00:42:33;;;;;;;19.30;11.75;;;;;;;;;;5097155;28;20221;-66
2022/01/21 00:45:00;;;;;;;18.42;12.85;;;;;;;;;;5096858;28;20163;-67
2022/01/21 00:47:26;;;;;;;18.75;11.45;;;;;;;;;;5096698;28;20583;-66
2022/01/21 00:49:53;;;;;;;18.20;12.80;;;;;;;;;;5096703;28;20174;-66
2022/01/21 00:52:19;;;;;;;17.02;12.45;;;;;;;;;;5095435;28;20211;-66
2022/01/21 00:54:45;;;;;;;20.80;13.35;;;;;;;;;;5096587;28;20214;-66
2022/01/21 00:57:11;;;;;;;18.30;12.97;;;;;;;;;;5096508;28;20167;-66
2022/01/21 00:59:37;;;;;;;15.15;11.95;;;;;;;;;;5096797;28;20730;-66
2022/01/21 01:02:04;;;;;;;26.83;16.30;;;;;;;;;;5096635;28;20163;-66
2022/01/21 01:04:30;;;;;;;30.30;19.48;;;;;;;;;;5096378;28;20242;-66
2022/01/21 01:06:56;;;;;;;30.23;17.70;;;;;;;;;;5096313;28;20679;-66
2022/01/21 01:09:22;;;;;;;31.17;16.90;;;;;;;;;;5096221;28;20163;-66
2022/01/21 01:22:29;;;;;;;18.50;13.27;;;;;;;;;;5096088;28;20159;-66
2022/01/21 01:27:42;;;;;;;14.68;11.15;;;;;;;;;;5096246;28;20178;-66
2022/01/21 01:30:11;;;;;;;14.77;11.82;;;;;;;;;;5095905;28;20163;-66
2022/01/21 01:32:38;;;;;;;15.98;11.52;;;;;;;;;;5096092;28;20181;-66
2022/01/21 01:35:04;;;;;;;14.32;11.15;;;;;;;;;;5095733;28;20207;-66
2022/01/21 01:37:38;;;;;;;14.45;10.80;;;;;;;;;;5095759;28;20213;-66
2022/01/21 01:50:54;;;;;;;15.20;10.02;;;;;;;;;;5095822;28;20173;-66
2022/01/21 01:53:23;;;;;;;21.75;11.40;;;;;;;;;;5095371;28;20191;-66
2022/01/21 01:55:49;;;;;;;14.73;10.77;;;;;;;;;;5095376;28;20175;-67
2022/01/21 01:58:15;;;;;;;15.35;10.05;;;;;;;;;;5095641;28;20207;-66
2022/01/21 02:00:43;;;;;;;11.63;10.00;;;;;;;;;;5095302;28;20167;-66
2022/01/21 02:03:10;;;;;;;13.43;9.45;;;;;;;;;;5095264;28;20171;-65
2022/01/21 02:05:37;;;;;;;13.02;10.27;;;;;;;;;;5095239;28;20254;-66
2022/01/21 02:08:03;;;;;;;10.65;9.38;;;;;;;;;;5095156;28;20171;-66
2022/01/21 02:10:29;;;;;;;11.35;9.68;;;;;;;;;;5095150;28;20178;-66
2022/01/21 02:13:05;;;;;;;13.83;9.13;;;;;;;;;;5095050;28;20163;-66
2022/01/21 02:15:34;;;;;;;11.98;9.77;;;;;;;;;;5095359;28;20421;-66
2022/01/21 02:23:30;;;;;;;13.63;9.48;;;;;;;;;;5094885;28;20177;-66
2022/01/21 02:25:56;;;;;;;11.43;8.90;;;;;;;;;;5094885;28;20304;-67
2022/01/21 02:28:22;;;;;;;14.60;9.33;;;;;;;;;;5094707;28;20649;-66
2022/01/21 02:30:57;;;;;;;11.45;8.98;;;;;;;;;;5095140;28;20496;-66
2022/01/21 02:33:24;;;;;;;14.90;8.98;;;;;;;;;;5094588;28;20276;-66
2022/01/21 02:35:50;;;;;;;11.95;9.27;;;;;;;;;;5094636;28;20171;-66
2022/01/21 02:38:16;;;;;;;11.80;9.07;;;;;;;;;;5094557;28;20247;-66
2022/01/21 02:40:45;;;;;;;9.23;8.32;;;;;;;;;;5094458;28;20402;-66
2022/01/21 02:43:11;;;;;;;17.33;9.70;;;;;;;;;;5094477;28;20175;-66
2022/01/21 02:45:44;;;;;;;12.13;9.18;;;;;;;;;;5094415;28;20221;-66
2022/01/21 02:48:10;;;;;;;14.80;9.02;;;;;;;;;;5094433;28;20174;-66
2022/01/21 02:50:36;;;;;;;11.90;8.43;;;;;;;;;;5094628;28;20579;-66
2022/01/21 02:53:13;;;;;;;13.63;9.50;;;;;;;;;;5094294;28;20171;-66
2022/01/21 02:55:39;;;;;;;11.77;9.45;;;;;;;;;;5094157;28;20754;-66
2022/01/21 02:58:05;;;;;;;10.73;8.10;;;;;;;;;;5094191;28;20614;-66
2022/01/21 03:00:31;;;;;;;9.80;8.20;;;;;;;;;;5094218;28;20178;-66
2022/01/21 03:02:57;;;;;;;11.15;9.38;;;;;;;;;;5094139;28;20733;-66
2022/01/21 03:05:23;;;;;;;10.10;9.00;;;;;;;;;;5094116;28;20176;-66
2022/01/21 03:07:50;;;;;;;10.32;8.43;;;;;;;;;;5094073;28;20167;-66
2022/01/21 03:10:16;;;;;;;13.18;9.90;;;;;;;;;;5094229;28;20171;-66
2022/01/21 03:12:43;;;;;;;15.13;9.63;;;;;;;;;;5093929;28;20163;-66
2022/01/21 03:15:09;;;;;;;11.40;9.88;;;;;;;;;;5093829;28;20206;-66
2022/01/21 03:17:35;;;;;;;11.57;9.90;;;;;;;;;;5093828;28;20230;-66
2022/01/21 03:20:01;;;;;;;13.73;10.35;;;;;;;;;;5094183;28;20250;-66
2022/01/21 03:22:27;;;;;;;10.52;9.25;;;;;;;;;;5093901;28;20531;-66
2022/01/21 03:24:53;;;;;;;13.45;10.18;;;;;;;;;;5093741;28;20656;-66
2022/01/21 03:27:19;;;;;;;14.23;9.80;;;;;;;;;;5092478;28;20630;-66
2022/01/21 03:29:46;;;;;;;12.03;9.97;;;;;;;;;;5094041;28;20164;-66
2022/01/21 03:32:11;;;;;;;13.30;10.00;;;;;;;;;;5093792;28;20397;-66
2022/01/21 03:34:37;;;;;;;12.13;9.10;;;;;;;;;;5093411;28;20553;-66
2022/01/21 03:37:04;;;;;;;11.10;10.00;;;;;;;;;;5093228;28;20389;-66
2022/01/21 03:39:30;;;;;;;10.27;9.20;;;;;;;;;;5093580;28;20402;-66
2022/01/21 03:41:56;;;;;;;19.60;10.13;;;;;;;;;;5093586;28;20178;-66
2022/01/21 03:44:22;;;;;;;11.48;9.68;;;;;;;;;;5093577;28;20401;-66
2022/01/21 03:46:48;;;;;;;14.87;11.17;;;;;;;;;;5093598;28;20525;-66
2022/01/21 03:49:15;;;;;;;15.57;11.33;;;;;;;;;;5093502;28;20458;-66
2022/01/21 03:51:41;;;;;;;13.35;10.90;;;;;;;;;;5093753;28;20765;-66
2022/01/21 03:54:07;;;;;;;13.13;9.60;;;;;;;;;;5093427;28;20210;-66
2022/01/21 03:56:35;;;;;;;11.20;10.00;;;;;;;;;;5093506;28;20756;-66
2022/01/21 03:59:01;;;;;;;14.13;9.63;;;;;;;;;;5093654;28;20436;-67
2022/01/21 04:01:28;;;;;;;12.43;10.13;;;;;;;;;;5093465;28;20171;-67
2022/01/21 04:03:54;;;;;;;11.07;9.93;;;;;;;;;;5093316;28;20405;-66
2022/01/21 04:06:20;;;;;;;14.27;9.82;;;;;;;;;;5093342;28;20175;-67
2022/01/21 04:08:46;;;;;;;11.73;9.30;;;;;;;;;;5093392;28;20226;-66
2022/01/21 04:11:12;;;;;;;16.77;10.95;;;;;;;;;;5093303;28;20907;-66
2022/01/21 04:13:38;;;;;;;10.65;9.65;;;;;;;;;;5093280;28;20207;-66
2022/01/21 04:16:05;;;;;;;9.85;8.93;;;;;;;;;;5093385;28;20171;-66
2022/01/21 04:18:32;;;;;;;10.05;8.98;;;;;;;;;;5093088;28;20276;-67
2022/01/21 04:20:58;;;;;;;9.93;8.18;;;;;;;;;;5091937;28;20196;-66
2022/01/21 04:23:25;;;;;;;9.95;8.45;;;;;;;;;;5093208;28;20657;-67
2022/01/21 04:25:51;;;;;;;11.95;9.57;;;;;;;;;;5093175;28;20170;-67
2022/01/21 04:28:17;;;;;;;15.68;8.70;;;;;;;;;;5093122;28;20699;-67
2022/01/21 04:30:43;;;;;;;23.27;15.85;;;;;;;;;;5093404;28;20174;-67
2022/01/21 04:33:09;;;;;;;9.45;8.55;;;;;;;;;;5093084;28;20634;-66
2022/01/21 04:35:36;;;;;;;8.95;7.93;;;;;;;;;;5093093;28;20179;-67
2022/01/21 04:38:05;;;;;;;9.02;8.13;;;;;;;;;;5093034;28;20175;-67
2022/01/21 04:40:35;;;;;;;12.50;7.97;;;;;;;;;;5093068;28;20159;-68
2022/01/21 04:48:33;;;;;;;9.77;8.45;;;;;;;;;;5096648;28;20170;-67
2022/01/21 04:51:21;;;;;;;8.60;7.87;;;;;;;;;;5096745;28;20168;-66
2022/01/21 04:53:48;;;;;;;10.38;8.35;;;;;;;;;;5096574;28;20455;-66
2022/01/21 04:56:15;;;;;;;8.45;7.60;;;;;;;;;;5095283;28;20183;-67
2022/01/21 04:58:41;;;;;;;11.40;8.70;;;;;;;;;;5096718;28;20167;-67
2022/01/21 05:01:08;;;;;;;14.35;9.48;;;;;;;;;;5096500;28;20171;-66
2022/01/21 05:03:34;;;;;;;9.13;8.43;;;;;;;;;;5096478;28;20182;-66
2022/01/21 05:06:01;;;;;;;9.18;8.27;;;;;;;;;;5096400;28;20160;-67
2022/01/21 05:08:39;;;;;;;11.35;8.73;;;;;;;;;;5096422;28;20268;-67
2022/01/21 05:11:06;;;;;;;13.27;8.35;;;;;;;;;;5096278;28;20250;-66
2022/01/21 05:13:39;;;;;;;10.63;9.40;;;;;;;;;;5096203;28;20206;-67
2022/01/21 05:18:49;;;;;;;10.48;8.63;;;;;;;;;;5096022;28;20296;-66
2022/01/21 05:21:15;;;;;;;11.10;9.07;;;;;;;;;;5096076;28;20670;-67
2022/01/21 05:23:41;;;;;;;11.57;9.50;;;;;;;;;;5096137;28;20417;-67
2022/01/21 05:26:07;;;;;;;11.27;8.63;;;;;;;;;;5096052;28;20488;-66
2022/01/21 05:28:33;;;;;;;12.38;9.88;;;;;;;;;;5096159;28;20774;-66
2022/01/21 05:30:59;;;;;;;8.43;7.60;;;;;;;;;;5095906;28;20178;-66
2022/01/21 05:33:25;;;;;;;13.47;8.50;;;;;;;;;;5095743;28;20457;-66
2022/01/21 05:35:51;;;;;;;22.20;15.30;;;;;;;;;;5095835;28;20508;-67
2022/01/21 05:38:17;;;;;;;15.37;12.17;;;;;;;;;;5095761;28;20393;-66
2022/01/21 05:40:46;;;;;;;11.33;9.00;;;;;;;;;;5095776;28;20498;-66
2022/01/21 05:43:11;;;;;;;64.63;31.27;;;;;;;;;;5095693;28;20489;-67
2022/01/21 05:48:22;;;;;;;15.45;9.27;;;;;;;;;;5095614;28;20407;-67
2022/01/21 05:50:48;;;;;;;13.48;10.73;;;;;;;;;;5095577;28;20167;-66
2022/01/21 05:53:14;;;;;;;19.93;13.70;;;;;;;;;;5095372;28;20168;-66
2022/01/21 05:55:42;;;;;;;18.05;11.90;;;;;;;;;;5095670;28;20416;-68
2022/01/21 05:58:09;;;;;;;17.73;11.35;;;;;;;;;;5095137;28;20167;-67
2022/01/21 06:00:36;;;;;;;16.25;11.30;;;;;;;;;;5095254;28;20687;-67
2022/01/21 06:03:02;;;;;;;18.42;11.85;;;;;;;;;;5095611;28;20171;-67
2022/01/21 06:05:32;;;;;;;14.32;9.85;;;;;;;;;;5095199;28;20168;-68
2022/01/21 06:07:59;;;;;;;13.07;9.73;;;;;;;;;;5095150;28;20160;-67
2022/01/21 06:10:25;;;;;;;21.60;12.48;;;;;;;;;;5096225;28;20171;-67
2022/01/21 06:12:51;;;;;;;30.70;13.00;;;;;;;;;;5095472;28;20614;-66
2022/01/21 06:15:17;;;;;;;19.13;11.60;;;;;;;;;;5095354;28;20468;-66
2022/01/21 06:17:43;;;;;;;19.35;10.05;;;;;;;;;;5095219;28;20461;-66
2022/01/21 06:20:09;;;;;;;18.67;8.50;;;;;;;;;;5093670;28;20277;-66
2022/01/21 06:22:35;;;;;;;13.48;8.10;;;;;;;;;;5094976;28;20868;-65
2022/01/21 06:25:01;;;;;;;10.40;8.10;;;;;;;;;;5094945;28;20181;-66
2022/01/21 06:27:30;;;;;;;17.73;9.63;;;;;;;;;;5094768;28;20175;-66
2022/01/21 06:29:56;;;;;;;14.77;8.65;;;;;;;;;;5094827;28;20626;-66
2022/01/21 06:32:22;;;;;;;9.50;8.57;;;;;;;;;;5094639;28;20691;-66
2022/01/21 06:34:48;;;;;;;17.15;9.27;;;;;;;;;;5094585;28;20661;-66
2022/01/21 06:37:14;;;;;;;14.63;7.90;;;;;;;;;;5094592;28;20253;-66
2022/01/21 06:39:40;;;;;;;15.80;8.02;;;;;;;;;;5094538;28;20409;-66
2022/01/21 06:42:06;;;;;;;20.60;8.83;;;;;;;;;;5094576;28;20167;-66
2022/01/21 06:44:32;;;;;;;27.38;8.20;;;;;;;;;;5094441;28;21001;-66
2022/01/21 06:46:58;;;;;;;16.80;8.83;;;;;;;;;;5094439;28;20250;-66
2022/01/21 06:49:24;;;;;;;20.17;9.20;;;;;;;;;;5094651;28;20417;-66
2022/01/21 06:51:50;;;;;;;15.33;8.20;;;;;;;;;;5094413;28;20398;-67
2022/01/21 06:54:16;;;;;;;20.60;8.40;;;;;;;;;;5094440;28;20475;-66
2022/01/21 06:56:42;;;;;;;16.10;7.87;;;;;;;;;;5094120;28;20401;-66
2022/01/21 06:59:08;;;;;;;20.23;7.50;;;;;;;;;;5094140;28;20462;-66
2022/01/21 07:01:34;;;;;;;11.15;7.03;;;;;;;;;;5094013;28;20409;-66
2022/01/21 07:04:00;;;;;;;9.30;6.50;;;;;;;;;;5094134;28;20163;-69
2022/01/21 07:06:26;;;;;;;14.32;7.75;;;;;;;;;;5094125;28;20163;-70
2022/01/21 07:08:52;;;;;;;13.38;7.75;;;;;;;;;;5093999;28;20648;-69
2022/01/21 07:11:19;;;;;;;12.98;7.90;;;;;;;;;;5093215;28;20511;-70
2022/01/21 07:13:45;;;;;;;21.27;8.40;;;;;;;;;;5093742;28;20202;-69
2022/01/21 07:16:11;;;;;;;13.82;7.97;;;;;;;;;;5093884;28;20680;-70
2022/01/21 07:18:37;;;;;;;15.07;8.60;;;;;;;;;;5093688;28;20301;-69
2022/01/21 07:21:03;;;;;;;80.07;42.33;;;;;;;;;;5093914;28;20210;-72
2022/01/21 07:23:29;;;;;;;31.83;19.75;;;;;;;;;;5093933;28;20925;-72
2022/01/21 07:25:55;;;;;;;16.80;8.93;;;;;;;;;;5093893;28;20163;-72
2022/01/21 07:28:21;;;;;;;18.13;9.43;;;;;;;;;;5093630;28;20412;-71
2022/01/21 07:30:47;;;;;;;21.98;8.38;;;;;;;;;;5093687;28;20171;-72
2022/01/21 07:33:13;;;;;;;15.50;8.53;;;;;;;;;;5093573;28;20167;-71
2022/01/21 07:35:39;;;;;;;14.55;8.93;;;;;;;;;;5093647;28;20498;-72
2022/01/21 07:38:05;;;;;;;16.63;8.35;;;;;;;;;;5093658;28;20199;-69
2022/01/21 07:40:33;;;;;;;21.38;9.07;;;;;;;;;;5093659;28;20175;-73
2022/01/21 07:42:59;;;;;;;14.30;9.95;;;;;;;;;;5093623;28;20163;-72
2022/01/21 07:45:25;;;;;;;25.13;14.93;;;;;;;;;;5093547;28;20171;-72
2022/01/21 07:47:51;;;;;;;27.25;16.08;;;;;;;;;;5093456;28;20250;-71
2022/01/21 07:50:17;;;;;;;24.83;15.63;;;;;;;;;;5093848;28;20213;-73
2022/01/21 07:52:43;;;;;;;25.07;14.53;;;;;;;;;;5093529;28;20508;-73
2022/01/21 07:55:10;;;;;;;19.47;14.40;;;;;;;;;;5093680;28;20465;-72
2022/01/21 07:57:36;;;;;;;20.13;13.63;;;;;;;;;;5093732;28;20442;-69
2022/01/21 08:00:02;;;;;;;21.17;11.90;;;;;;;;;;5093450;28;20202;-73
2022/01/21 08:02:29;;;;;;;19.15;11.35;;;;;;;;;;5093354;28;20405;-71
2022/01/21 08:04:56;;;;;;;14.73;9.65;;;;;;;;;;5093371;28;20159;-72
2022/01/21 08:07:22;;;;;;;17.85;9.07;;;;;;;;;;5093364;28;20152;-71
2022/01/21 08:09:49;;;;;;;12.90;9.10;;;;;;;;;;5093462;28;20577;-72
2022/01/21 08:12:18;;;;;;;31.15;19.55;;;;;;;;;;5093218;28;20773;-70
2022/01/21 08:14:44;;;;;;;18.25;9.57;;;;;;;;;;5093233;28;20199;-73
2022/01/21 08:17:10;;;;;;;19.17;9.50;;;;;;;;;;5092995;28;20182;-73
2022/01/21 08:19:36;;;;;;;19.23;8.70;;;;;;;;;;5093247;28;20401;-67
2022/01/21 08:22:02;;;;;;;31.70;9.93;;;;;;;;;;5094866;28;20250;-75
2022/01/21 08:24:28;;;;;;;19.33;9.45;;;;;;;;;;5097251;28;20379;-72
2022/01/21 08:26:54;;;;;;;12.90;9.03;;;;;;;;;;5097021;28;20243;-73
2022/01/21 08:29:20;;;;;;;16.23;9.40;;;;;;;;;;5096888;28;20405;-74
2022/01/21 08:31:46;;;;;;;16.13;9.73;;;;;;;;;;5096868;28;20408;-76
2022/01/21 08:34:13;;;;;;;16.05;7.90;;;;;;;;;;5096714;28;20993;-71
2022/01/21 08:36:39;;;;;;;15.50;8.13;;;;;;;;;;5097008;28;20163;-77
2022/01/21 08:39:05;;;;;;;18.60;9.35;;;;;;;;;;5096768;28;20159;-76
2022/01/21 08:41:31;;;;;;;15.60;8.10;;;;;;;;;;5096528;28;20171;-75
2022/01/21 08:43:57;;;;;;;18.50;9.32;;;;;;;;;;5096622;28;20171;-77
2022/01/21 08:46:23;;;;;;;11.75;7.25;;;;;;;;;;5096870;28;20159;-76
2022/01/21 08:48:50;;;;;;;15.70;8.47;;;;;;;;;;5096645;28;20177;-73
2022/01/21 08:51:24;;;;;;;15.38;12.38;;;;;;;;;;5096342;28;20396;-76
2022/01/21 08:53:50;;;;;;;19.05;7.10;;;;;;;;;;5096596;28;20234;-78
2022/01/21 08:56:17;;;;;;;11.30;7.47;;;;;;;;;;5096346;28;20664;-77
2022/01/21 08:58:44;;;;;;;18.25;7.13;;;;;;;;;;5097027;28;20735;-76
2022/01/21 09:01:10;;;;;;;14.07;6.15;;;;;;;;;;5096747;28;20701;-74
2022/01/21 09:03:40;;;;;;;7.10;5.43;;;;;;;;;;5096696;28;20175;-77
2022/01/21 09:06:06;;;;;;;15.32;6.50;;;;;;;;;;5096271;28;20611;-77
2022/01/21 09:08:32;;;;;;;11.03;6.50;;;;;;;;;;5096261;28;20179;-76
2022/01/21 09:11:00;;;;;;;11.53;7.10;;;;;;;;;;5096181;28;20886;-78
2022/01/21 09:13:29;;;;;;;7.63;5.90;;;;;;;;;;5096234;28;20368;-77
2022/01/21 09:16:00;;;;;;;11.10;5.40;;;;;;;;;;5096529;28;20435;-78
2022/01/21 09:18:33;;;;;;;9.60;6.73;;;;;;;;;;5095970;28;20787;-76
2022/01/21 09:20:59;;;;;;;10.77;6.00;;;;;;;;;;5096102;28;20412;-76
2022/01/21 09:23:25;;;;;;;8.43;5.57;;;;;;;;;;5096225;28;20386;-78
2022/01/21 09:25:51;;;;;;;19.10;6.57;;;;;;;;;;5096041;28;20941;-77
2022/01/21 09:28:17;;;;;;;16.73;6.87;;;;;;;;;;5096339;28;20496;-78
2022/01/21 09:30:43;;;;;;;14.20;6.87;;;;;;;;;;5095904;28;20416;-76
2022/01/21 09:33:10;;;;;;;13.53;7.33;;;;;;;;;;5094807;28;20413;-77
2022/01/21 09:35:36;;;;;;;15.00;5.70;;;;;;;;;;5095788;28;20417;-77
2022/01/21 09:38:02;;;;;;;11.07;5.70;;;;;;;;;;5095702;28;20516;-77
2022/01/21 09:40:32;;;;;;;7.20;5.20;;;;;;;;;;5095971;28;20409;-76
2022/01/21 09:42:58;;;;;;;9.57;5.27;;;;;;;;;;5095499;28;20394;-76
2022/01/21 09:45:25;;;;;;;6.30;4.93;;;;;;;;;;5095806;28;20496;-76
2022/01/21 09:47:54;;;;;;;11.73;7.03;;;;;;;;;;5095814;28;20488;-77
2022/01/21 09:50:21;;;;;;;7.93;5.07;;;;;;;;;;5095482;28;20862;-77
2022/01/21 09:52:48;;;;;;;12.63;5.80;;;;;;;;;;5095585;28;20492;-76
2022/01/21 09:55:14;;;;;;;12.97;5.20;;;;;;;;;;5095383;28;20969;-76
2022/01/21 09:57:41;;;;;;;9.20;4.90;;;;;;;;;;5095406;28;20395;-76
2022/01/21 10:00:08;;;;;;;9.33;5.20;;;;;;;;;;5095370;28;20759;-76
2022/01/21 10:02:35;;;;;;;12.20;5.33;;;;;;;;;;5095347;28;20406;-76
2022/01/21 10:05:02;;;;;;;9.50;4.37;;;;;;;;;;5095187;28;20401;-75
2022/01/21 10:07:29;;;;;;;7.30;4.67;;;;;;;;;;5095247;28;20429;-73
2022/01/21 10:09:55;;;;;;;22.00;8.30;;;;;;;;;;5095244;28;20770;-77
2022/01/21 10:12:23;;;;;;;7.73;5.20;;;;;;;;;;5095006;28;20490;-75
2022/01/21 10:14:49;;;;;;;10.07;4.80;;;;;;;;;;5094923;28;20467;-76
2022/01/21 10:17:15;;;;;;;9.90;5.10;;;;;;;;;;5094648;28;20449;-75
2022/01/21 10:19:43;;;;;;;14.40;4.63;;;;;;;;;;5094830;28;20405;-75
2022/01/21 10:22:17;;;;;;;7.60;4.90;;;;;;;;;;5094805;28;20401;-77
2022/01/21 10:24:59;;;;;;;11.57;5.10;;;;;;;;;;5094725;28;20398;-77
2022/01/21 10:27:29;;;;;;;7.13;4.63;;;;;;;;;;5094851;28;20470;-75
2022/01/21 10:29:56;;;;;;;6.53;4.67;;;;;;;;;;5094795;28;20412;-73
2022/01/21 10:32:39;;;;;;;14.60;5.77;;;;;;;;;;5094574;28;20954;-77
2022/01/21 10:35:18;;;;;;;8.30;5.30;;;;;;;;;;5094416;28;20469;-76
2022/01/21 10:37:44;;;;;;;7.70;4.67;;;;;;;;;;5094469;28;20412;-75
2022/01/21 10:40:11;;;;;;;16.73;5.73;;;;;;;;;;5094550;28;20397;-74
2022/01/21 10:42:38;;;;;;;12.13;5.30;;;;;;;;;;5094482;28;20901;-76
2022/01/21 10:45:05;;;;;;;7.47;5.70;;;;;;;;;;5094294;28;20399;-76
2022/01/21 10:47:33;;;;;;;8.73;4.50;;;;;;;;;;5094454;28;20567;-73
2022/01/21 10:50:00;;;;;;;7.43;4.53;;;;;;;;;;5094566;28;20399;-75
2022/01/21 10:52:33;;;;;;;11.77;6.10;;;;;;;;;;5094750;28;20457;-74
2022/01/21 10:55:00;;;;;;;5.67;5.13;;;;;;;;;;5094482;28;20471;-77
2022/01/21 10:57:29;;;;;;;8.40;5.23;;;;;;;;;;5094311;28;20396;-77
2022/01/21 11:00:02;;;;;;;9.33;4.97;;;;;;;;;;5094210;28;20449;-73
2022/01/21 11:02:33;;;;;;;11.90;5.37;;;;;;;;;;5094186;28;20474;-75
2022/01/21 11:05:01;;;;;;;10.40;5.13;;;;;;;;;;5094195;28;20388;-76
2022/01/21 11:07:46;;;;;;;9.93;5.00;;;;;;;;;;5094055;28;20396;-76
2022/01/21 11:10:36;;;;;;;10.20;5.10;;;;;;;;;;5094206;28;20471;-76
2022/01/21 11:13:22;;;;;;;8.83;4.90;;;;;;;;;;5084843;28;20989;-74
2022/01/21 11:15:50;;;;;;;9.27;5.60;;;;;;;;;;5086723;28;20479;-74
2022/01/21 11:18:18;;;;;;;9.00;5.20;;;;;;;;;;5093830;28;20979;-76
2022/01/21 11:20:49;;;;;;;9.57;5.93;;;;;;;;;;5094147;28;20411;-76
2022/01/21 11:23:16;;;;;;;8.10;5.57;;;;;;;;;;5093970;28;20395;-72
2022/01/21 11:25:48;;;;;;;10.50;5.40;;;;;;;;;;5093735;28;20396;-72
2022/01/21 11:28:22;;;;;;;17.17;5.60;;;;;;;;;;5093929;28;20498;-75
2022/01/21 11:30:48;;;;;;;7.43;5.43;;;;;;;;;;5093657;28;20736;-73
2022/01/21 11:33:14;;;;;;;15.60;5.77;;;;;;;;;;5093622;28;20396;-73
2022/01/21 11:35:40;;;;;;;10.27;5.20;;;;;;;;;;5093751;28;20393;-73
2022/01/21 11:38:07;;;;;;;19.20;6.20;;;;;;;;;;5093734;28;20404;-73
2022/01/21 11:40:34;;;;;;;6.43;5.03;;;;;;;;;;5093904;28;20396;-75
2022/01/21 11:43:04;;;;;;;12.47;5.67;;;;;;;;;;5093687;28;20881;-74
2022/01/21 11:45:43;;;;;;;9.60;5.30;;;;;;;;;;5093507;28;20385;-73
2022/01/21 11:50:39;;;;;;;10.43;5.40;;;;;;;;;;5093847;28;20430;-75
2022/01/21 11:53:05;;;;;;;8.13;5.23;;;;;;;;;;5093615;28;20488;-75
2022/01/21 11:55:34;;;;;;;11.53;5.03;;;;;;;;;;5093372;28;20964;-75
2022/01/21 11:58:21;;;;;;;11.63;4.83;;;;;;;;;;5097193;28;20476;-76
2022/01/21 12:00:48;;;;;;;6.97;4.30;;;;;;;;;;5097843;28;20424;-76
2022/01/21 12:03:22;;;;;;;7.47;4.47;;;;;;;;;;5097728;28;20429;-75
2022/01/21 12:05:49;;;;;;;12.97;8.10;;;;;;;;;;5097764;28;20412;-77
2022/01/21 12:08:15;;;;;;;9.83;4.33;;;;;;;;;;5097443;28;20403;-76
2022/01/21 12:10:46;;;;;;;9.90;6.13;;;;;;;;;;5097404;28;20407;-74
2022/01/21 12:13:21;;;;;;;7.43;4.20;;;;;;;;;;5097331;28;20454;-75
2022/01/21 12:16:09;;;;;;;6.30;4.20;;;;;;;;;;5097545;28;20463;-76
2022/01/21 12:19:08;;;;;;;8.77;3.80;;;;;;;;;;5097137;28;20457;-76
2022/01/21 12:21:35;;;;;;;5.47;3.80;;;;;;;;;;5097517;28;20409;-72
2022/01/21 12:24:03;;;;;;;8.37;3.77;;;;;;;;;;5097277;28;20408;-73
2022/01/21 12:26:29;;;;;;;8.40;3.17;;;;;;;;;;5097202;28;20382;-72
2022/01/21 12:28:58;;;;;;;6.83;3.40;;;;;;;;;;5097104;28;20405;-75
2022/01/21 12:31:26;;;;;;;9.73;4.00;;;;;;;;;;5097028;28;20405;-72
2022/01/21 12:34:00;;;;;;;8.00;3.43;;;;;;;;;;5096940;28;20551;-74
2022/01/21 12:36:29;;;;;;;4.77;3.10;;;;;;;;;;5096861;28;20412;-72
2022/01/21 12:41:21;;;;;;;9.87;3.17;;;;;;;;;;5096911;28;20519;-74
2022/01/21 12:43:48;;;;;;;8.67;3.30;;;;;;;;;;5096863;28;20952;-75
2022/01/21 12:46:16;;;;;;;4.47;3.23;;;;;;;;;;5097073;28;20504;-74
2022/01/21 12:48:43;;;;;;;9.23;2.87;;;;;;;;;;5096444;28;20425;-75
2022/01/21 12:51:15;;;;;;;46.37;34.13;;;;;;;;;;5096713;28;20402;-74
2022/01/21 12:55:55;;;;;;;11.60;3.40;;;;;;;;;;5096611;28;20455;-75
2022/01/21 12:56:28;;;;;;;7.50;3.23;;;;;;;;;;5096808;28;20426;-75
2022/01/21 12:58:54;;;;;;;5.23;3.10;;;;;;;;;;5103865;28;20807;-75
2022/01/21 13:01:20;;;;;;;2.83;2.10;;;;;;;;;;5103320;28;20418;-75
2022/01/21 13:03:46;;;;;;;4.40;2.13;;;;;;;;;;5097014;28;20447;-75
2022/01/21 13:06:15;;;;;;;5.80;2.90;;;;;;;;;;5097036;28;20409;-75
2022/01/21 13:08:59;;;;;;;6.10;2.50;;;;;;;;;;5095135;28;20403;-75
2022/01/21 13:11:25;;;;;;;8.57;3.33;;;;;;;;;;5096445;28;20404;-75
2022/01/21 13:14:34;;;;;;;7.20;3.40;;;;;;;;;;5094980;28;20461;-75
2022/01/21 13:17:01;;;;;;;8.60;2.80;;;;;;;;;;5095978;28;20420;-75
2022/01/21 13:19:28;;;;;;;5.37;3.83;;;;;;;;;;5094942;28;20830;-76
2022/01/21 13:21:54;;;;;;;14.73;4.17;;;;;;;;;;5096196;28;20892;-74
2022/01/21 13:24:31;;;;;;;9.67;3.47;;;;;;;;;;5096177;28;20976;-75
2022/01/21 13:26:58;;;;;;;7.07;3.37;;;;;;;;;;5096123;28;20397;-74
2022/01/21 13:29:34;;;;;;;12.07;3.67;;;;;;;;;;5095953;28;20892;-73
2022/01/21 13:32:02;;;;;;;8.70;3.73;;;;;;;;;;5095952;28;20408;-72
2022/01/21 13:34:29;;;;;;;4.10;3.30;;;;;;;;;;5095794;28;20452;-74
2022/01/21 13:36:57;;;;;;;9.53;4.20;;;;;;;;;;5095759;28;20470;-74
2022/01/21 13:39:34;;;;;;;7.37;3.60;;;;;;;;;;5095679;28;20859;-74
2022/01/21 13:42:03;;;;;;;4.47;3.13;;;;;;;;;;5095708;28;20451;-74
2022/01/21 13:44:42;;;;;;;4.47;3.30;;;;;;;;;;5095457;28;20768;-73
2022/01/21 13:47:24;;;;;;;8.37;3.83;;;;;;;;;;5095848;28;20416;-74
2022/01/21 13:49:50;;;;;;;6.90;3.07;;;;;;;;;;5095531;28;20784;-74
2022/01/21 13:52:16;;;;;;;7.23;3.20;;;;;;;;;;5095552;28;20496;-74
2022/01/21 13:54:47;;;;;;;8.20;3.07;;;;;;;;;;5095403;28;20465;-73
2022/01/21 13:57:13;;;;;;;8.90;3.20;;;;;;;;;;5095672;28;20869;-74
2022/01/21 13:59:43;;;;;;;8.90;3.20;;;;;;;;;;5095239;28;20488;-73
2022/01/21 14:02:14;;;;;;;7.47;3.63;;;;;;;;;;5095236;28;20764;-73
2022/01/21 14:04:40;;;;;;;7.37;3.20;;;;;;;;;;5095321;28;20496;-73
2022/01/21 14:07:26;;;;;;;6.50;3.20;;;;;;;;;;5095457;28;20511;-73
2022/01/21 14:09:52;;;;;;;7.10;2.97;;;;;;;;;;5095163;28;20570;-72
2022/01/21 14:12:18;;;;;;;6.07;3.90;;;;;;;;;;5095023;28;20400;-72
2022/01/21 14:14:46;;;;;;;4.50;4.00;;;;;;;;;;5095007;28;20464;-74
2022/01/21 14:17:12;;;;;;;5.20;2.80;;;;;;;;;;5094816;28;20451;-73
2022/01/21 14:19:40;;;;;;;4.10;2.90;;;;;;;;;;5093269;28;20428;-74
2022/01/21 14:22:10;;;;;;;8.43;2.80;;;;;;;;;;5095134;28;20405;-74
2022/01/21 14:24:40;;;;;;;4.00;2.30;;;;;;;;;;5094874;28;20409;-74
2022/01/21 14:27:06;;;;;;;8.43;3.07;;;;;;;;;;5094677;28;20461;-74
2022/01/21 14:29:33;;;;;;;7.50;2.93;;;;;;;;;;5094894;28;20409;-73
2022/01/21 14:32:01;;;;;;;5.27;2.97;;;;;;;;;;5094768;28;20405;-73
2022/01/21 14:34:27;;;;;;;9.97;2.70;;;;;;;;;;5094874;28;20821;-74
2022/01/21 14:36:59;;;;;;;3.20;2.33;;;;;;;;;;5094689;28;20419;-73
2022/01/21 14:39:26;;;;;;;4.27;2.67;;;;;;;;;;5094604;28;20407;-73
2022/01/21 14:41:53;;;;;;;6.73;2.60;;;;;;;;;;5094863;28;20409;-73
2022/01/21 14:44:35;;;;;;;9.43;2.80;;;;;;;;;;5094526;28;20986;-74
2022/01/21 14:47:09;;;;;;;2.63;2.33;;;;;;;;;;5094411;28;20425;-74
2022/01/21 14:49:36;;;;;;;10.03;2.60;;;;;;;;;;5094252;28;20397;-73
2022/01/21 14:52:33;;;;;;;11.37;3.27;;;;;;;;;;5094660;28;20405;-74
2022/01/21 14:54:48;;;;;;;12.43;2.80;;;;;;;;;;5093974;28;20879;-74
2022/01/21 14:57:14;;;;;;;9.23;4.40;;;;;;;;;;5092777;28;20990;-73
2022/01/21 14:59:53;;;;;;;6.70;2.40;;;;;;;;;;5094078;28;20405;-73
2022/01/21 15:02:33;;;;;;;11.67;5.03;;;;;;;;;;5094265;28;20462;-74
2022/01/21 15:05:02;;;;;;;3.00;2.20;;;;;;;;;;5094202;28;20397;-74
2022/01/21 15:07:29;;;;;;;5.83;2.97;;;;;;;;;;5094375;28;20387;-73
2022/01/21 15:09:56;;;;;;;6.17;4.47;;;;;;;;;;5094004;28;20474;-75
2022/01/21 15:15:44;;;;;;;6.53;2.40;;;;;;;;;;5093741;28;20471;-73
2022/01/21 15:18:14;;;;;;;8.30;2.30;;;;;;;;;;5093738;28;20475;-74
2022/01/21 15:20:44;;;;;;;7.23;2.27;;;;;;;;;;5094098;28;20760;-76
2022/01/21 15:23:10;;;;;;;5.20;2.23;;;;;;;;;;5092431;28;20417;-74
2022/01/21 15:25:36;;;;;;;7.23;2.37;;;;;;;;;;5093693;28;20492;-75
2022/01/21 15:28:03;;;;;;;5.47;1.97;;;;;;;;;;5093702;28;20379;-74
2022/01/21 15:30:30;;;;;;;9.10;2.27;;;;;;;;;;5093602;28;20409;-74
2022/01/21 15:32:57;;;;;;;39.60;23.63;;;;;;;;;;5093261;28;20386;-72
2022/01/21 15:35:23;;;;;;;11.57;2.20;;;;;;;;;;5093735;28;20487;-74
2022/01/21 15:37:50;;;;;;;7.27;2.13;;;;;;;;;;5093674;28;20405;-76